Rosevine, Texas
Current Conditions -  °F | °C
As of 1:15 AM on Friday 19 Dec 2014 (Local Time) from KJAS Reporting Station
Light Rain Light Rain  
Wind Chill: 52°   Ceiling: 500
Heat Index: 52°   Visibility: 3mi
Dew Point: 51°   Wind: 10mph
Humidity: 97%   Direction: 60°ENE
Pressure: 30.09"   Gusts: NA
Location:  31.3308°N, 94.0111°W
Report Text: KJAS 190715Z AUTO 06009KT 3SM -RA OVC005 11/11 A3009 RMK AO2 T01100105
Loading
Personal Weather Stations






























Interactive Weather Map New forecast layout! Learn more

10-Day Weather Forecast

Advertisements
Track Severe Weather on mobile